Fontanelle, Iowa
Current Conditions -  °F | °C
As of 6:55 PM on Saturday 22 Nov 2014 (Local Time) from KCSQ Reporting Station
Haze Haze  
Wind Chill: 54°   Ceiling: 400
Heat Index: 54°   Visibility: 6mi
Dew Point: 54°   Wind: 21mph
Humidity: 100%   Direction: 190°S
Pressure: 29.68"   Gusts: 28mph
Location:  41.29°N, 94.56°W
Report Text: KCSQ 230055Z AUTO 19018G24KT 6SM BR OVC004 12/12 A2968 RMK AO2
Loading
Personal Weather Stations






























Interactive Weather Map New forecast layout! Learn more

10-Day Weather Forecast

Advertisements
Track Severe Weather on mobile